sensor_id;sensor_type;location;lat;lon;timestamp;P1;durP1;ratioP1;P2;durP2;ratioP2
12048;SDS011;6085;49.452;8.502;2022-09-13T00:03:55;7.85;;;4.95;;
12048;SDS011;6085;49.452;8.502;2022-09-13T00:07:57;7.43;;;5.40;;
12048;SDS011;6085;49.452;8.502;2022-09-13T00:12:01;7.25;;;5.43;;
12048;SDS011;6085;49.452;8.502;2022-09-13T00:16:03;7.63;;;5.28;;
12048;SDS011;6085;49.452;8.502;2022-09-13T00:20:05;7.55;;;5.35;;
12048;SDS011;6085;49.452;8.502;2022-09-13T00:24:08;5.95;;;5.13;;
12048;SDS011;6085;49.452;8.502;2022-09-13T00:28:11;5.95;;;5.35;;
12048;SDS011;6085;49.452;8.502;2022-09-13T00:32:13;6.53;;;5.35;;
12048;SDS011;6085;49.452;8.502;2022-09-13T00:36:15;5.43;;;4.82;;
12048;SDS011;6085;49.452;8.502;2022-09-13T00:40:17;5.53;;;5.03;;
12048;SDS011;6085;49.452;8.502;2022-09-13T00:48:50;6.55;;;5.72;;
12048;SDS011;6085;49.452;8.502;2022-09-13T00:52:57;6.65;;;5.65;;
12048;SDS011;6085;49.452;8.502;2022-09-13T00:57:03;5.40;;;4.82;;
12048;SDS011;6085;49.452;8.502;2022-09-13T01:01:07;5.53;;;5.03;;
12048;SDS011;6085;49.452;8.502;2022-09-13T01:05:12;6.30;;;5.10;;
12048;SDS011;6085;49.452;8.502;2022-09-13T01:09:14;7.88;;;5.35;;
12048;SDS011;6085;49.452;8.502;2022-09-13T01:13:17;7.25;;;5.25;;
12048;SDS011;6085;49.452;8.502;2022-09-13T01:17:22;8.25;;;5.78;;
12048;SDS011;6085;49.452;8.502;2022-09-13T01:26:07;5.82;;;5.18;;
12048;SDS011;6085;49.452;8.502;2022-09-13T01:30:34;7.45;;;5.20;;
12048;SDS011;6085;49.452;8.502;2022-09-13T01:34:41;7.20;;;5.75;;
12048;SDS011;6085;49.452;8.502;2022-09-13T01:38:56;6.20;;;5.60;;
12048;SDS011;6085;49.452;8.502;2022-09-13T01:43:06;6.72;;;6.03;;
12048;SDS011;6085;49.452;8.502;2022-09-13T01:47:25;6.03;;;5.10;;
12048;SDS011;6085;49.452;8.502;2022-09-13T01:51:32;5.45;;;4.95;;
12048;SDS011;6085;49.452;8.502;2022-09-13T01:55:39;5.43;;;4.80;;
12048;SDS011;6085;49.452;8.502;2022-09-13T01:59:49;6.40;;;5.40;;
12048;SDS011;6085;49.452;8.502;2022-09-13T02:03:56;5.97;;;5.38;;
12048;SDS011;6085;49.452;8.502;2022-09-13T02:08:07;5.65;;;5.15;;
12048;SDS011;6085;49.452;8.502;2022-09-13T02:12:13;7.75;;;5.47;;
12048;SDS011;6085;49.452;8.502;2022-09-13T02:16:18;6.13;;;5.55;;
12048;SDS011;6085;49.452;8.502;2022-09-13T02:20:27;6.43;;;5.40;;
12048;SDS011;6085;49.452;8.502;2022-09-13T02:24:33;6.53;;;5.75;;
12048;SDS011;6085;49.452;8.502;2022-09-13T02:28:40;6.47;;;5.85;;
12048;SDS011;6085;49.452;8.502;2022-09-13T02:32:49;6.22;;;5.43;;
12048;SDS011;6085;49.452;8.502;2022-09-13T02:36:56;7.25;;;5.63;;
12048;SDS011;6085;49.452;8.502;2022-09-13T02:41:03;6.45;;;5.85;;
12048;SDS011;6085;49.452;8.502;2022-09-13T02:45:10;6.05;;;5.45;;
12048;SDS011;6085;49.452;8.502;2022-09-13T02:49:16;6.28;;;5.53;;
12048;SDS011;6085;49.452;8.502;2022-09-13T02:53:28;6.22;;;5.53;;
12048;SDS011;6085;49.452;8.502;2022-09-13T02:57:37;6.43;;;5.82;;
12048;SDS011;6085;49.452;8.502;2022-09-13T03:01:43;6.65;;;6.03;;
12048;SDS011;6085;49.452;8.502;2022-09-13T03:05:48;7.25;;;6.00;;
12048;SDS011;6085;49.452;8.502;2022-09-13T03:09:52;6.60;;;6.00;;
12048;SDS011;6085;49.452;8.502;2022-09-13T03:18:28;6.18;;;5.57;;
12048;SDS011;6085;49.452;8.502;2022-09-13T03:27:08;9.93;;;7.78;;
12048;SDS011;6085;49.452;8.502;2022-09-13T03:31:20;6.75;;;5.97;;
12048;SDS011;6085;49.452;8.502;2022-09-13T03:35:30;7.93;;;6.20;;
12048;SDS011;6085;49.452;8.502;2022-09-13T03:39:39;9.15;;;6.45;;
12048;SDS011;6085;49.452;8.502;2022-09-13T03:43:47;6.82;;;5.75;;
12048;SDS011;6085;49.452;8.502;2022-09-13T03:47:51;7.78;;;6.53;;
12048;SDS011;6085;49.452;8.502;2022-09-13T03:51:53;7.32;;;6.53;;
12048;SDS011;6085;49.452;8.502;2022-09-13T03:55:57;7.10;;;6.40;;
12048;SDS011;6085;49.452;8.502;2022-09-13T04:00:00;6.63;;;6.03;;
12048;SDS011;6085;49.452;8.502;2022-09-13T04:04:02;7.10;;;6.40;;
12048;SDS011;6085;49.452;8.502;2022-09-13T04:08:04;7.38;;;5.78;;
12048;SDS011;6085;49.452;8.502;2022-09-13T04:12:07;7.00;;;6.30;;
12048;SDS011;6085;49.452;8.502;2022-09-13T04:16:11;7.43;;;5.85;;
12048;SDS011;6085;49.452;8.502;2022-09-13T04:20:13;6.50;;;5.70;;
12048;SDS011;6085;49.452;8.502;2022-09-13T04:24:15;7.22;;;6.47;;
12048;SDS011;6085;49.452;8.502;2022-09-13T04:28:18;7.57;;;6.25;;
12048;SDS011;6085;49.452;8.502;2022-09-13T04:32:21;5.90;;;5.30;;
12048;SDS011;6085;49.452;8.502;2022-09-13T04:36:23;7.20;;;6.32;;
12048;SDS011;6085;49.452;8.502;2022-09-13T04:40:25;6.85;;;5.90;;
12048;SDS011;6085;49.452;8.502;2022-09-13T04:44:28;8.30;;;6.25;;
12048;SDS011;6085;49.452;8.502;2022-09-13T04:48:32;7.20;;;6.47;;
12048;SDS011;6085;49.452;8.502;2022-09-13T04:52:34;8.20;;;7.32;;
12048;SDS011;6085;49.452;8.502;2022-09-13T04:56:36;9.88;;;7.60;;
12048;SDS011;6085;49.452;8.502;2022-09-13T05:00:38;8.13;;;7.32;;
12048;SDS011;6085;49.452;8.502;2022-09-13T05:04:41;7.90;;;6.90;;
12048;SDS011;6085;49.452;8.502;2022-09-13T05:08:43;10.88;;;8.15;;
12048;SDS011;6085;49.452;8.502;2022-09-13T05:12:45;9.43;;;8.43;;
12048;SDS011;6085;49.452;8.502;2022-09-13T05:16:47;11.05;;;8.52;;
12048;SDS011;6085;49.452;8.502;2022-09-13T05:20:50;11.02;;;8.88;;
12048;SDS011;6085;49.452;8.502;2022-09-13T05:24:54;11.20;;;9.10;;
12048;SDS011;6085;49.452;8.502;2022-09-13T05:28:56;10.70;;;9.18;;
12048;SDS011;6085;49.452;8.502;2022-09-13T05:32:59;10.20;;;8.93;;
12048;SDS011;6085;49.452;8.502;2022-09-13T05:37:02;13.98;;;10.77;;
12048;SDS011;6085;49.452;8.502;2022-09-13T05:41:04;11.50;;;9.55;;
12048;SDS011;6085;49.452;8.502;2022-09-13T05:45:07;11.13;;;9.82;;
12048;SDS011;6085;49.452;8.502;2022-09-13T05:49:10;9.75;;;7.78;;
12048;SDS011;6085;49.452;8.502;2022-09-13T05:53:14;9.50;;;7.00;;
12048;SDS011;6085;49.452;8.502;2022-09-13T05:57:15;6.43;;;5.78;;
12048;SDS011;6085;49.452;8.502;2022-09-13T06:01:18;7.45;;;5.47;;
12048;SDS011;6085;49.452;8.502;2022-09-13T06:05:21;7.10;;;5.30;;
12048;SDS011;6085;49.452;8.502;2022-09-13T06:09:24;7.65;;;4.97;;
12048;SDS011;6085;49.452;8.502;2022-09-13T06:13:27;7.55;;;4.97;;
12048;SDS011;6085;49.452;8.502;2022-09-13T06:17:30;4.95;;;4.25;;
12048;SDS011;6085;49.452;8.502;2022-09-13T06:21:31;5.32;;;4.57;;
12048;SDS011;6085;49.452;8.502;2022-09-13T06:25:35;8.50;;;4.90;;
12048;SDS011;6085;49.452;8.502;2022-09-13T06:29:37;5.45;;;4.35;;
12048;SDS011;6085;49.452;8.502;2022-09-13T06:33:39;5.25;;;4.38;;
12048;SDS011;6085;49.452;8.502;2022-09-13T06:37:43;4.95;;;4.43;;
12048;SDS011;6085;49.452;8.502;2022-09-13T06:41:46;5.35;;;4.20;;
12048;SDS011;6085;49.452;8.502;2022-09-13T06:45:48;4.65;;;3.92;;
12048;SDS011;6085;49.452;8.502;2022-09-13T06:49:50;5.85;;;4.18;;
12048;SDS011;6085;49.452;8.502;2022-09-13T06:53:52;5.28;;;3.92;;
12048;SDS011;6085;49.452;8.502;2022-09-13T06:57:58;3.88;;;3.58;;
12048;SDS011;6085;49.452;8.502;2022-09-13T07:01:59;3.92;;;3.53;;
12048;SDS011;6085;49.452;8.502;2022-09-13T07:06:05;4.18;;;3.72;;
12048;SDS011;6085;49.452;8.502;2022-09-13T07:10:08;4.00;;;3.58;;
12048;SDS011;6085;49.452;8.502;2022-09-13T07:14:13;5.28;;;3.90;;
12048;SDS011;6085;49.452;8.502;2022-09-13T07:18:15;4.00;;;3.60;;
12048;SDS011;6085;49.452;8.502;2022-09-13T07:22:17;4.10;;;3.70;;
12048;SDS011;6085;49.452;8.502;2022-09-13T07:26:19;4.30;;;3.90;;
12048;SDS011;6085;49.452;8.502;2022-09-13T07:30:22;4.90;;;3.50;;
12048;SDS011;6085;49.452;8.502;2022-09-13T07:34:25;5.32;;;4.18;;
12048;SDS011;6085;49.452;8.502;2022-09-13T07:38:27;4.60;;;3.72;;
12048;SDS011;6085;49.452;8.502;2022-09-13T07:42:29;4.10;;;3.70;;
12048;SDS011;6085;49.452;8.502;2022-09-13T07:46:33;4.03;;;3.58;;
12048;SDS011;6085;49.452;8.502;2022-09-13T07:50:38;4.13;;;3.60;;
12048;SDS011;6085;49.452;8.502;2022-09-13T07:54:40;4.78;;;3.60;;
12048;SDS011;6085;49.452;8.502;2022-09-13T07:58:43;4.68;;;4.20;;
12048;SDS011;6085;49.452;8.502;2022-09-13T08:02:47;3.88;;;3.58;;
12048;SDS011;6085;49.452;8.502;2022-09-13T08:06:49;5.30;;;3.88;;
12048;SDS011;6085;49.452;8.502;2022-09-13T08:10:51;4.97;;;4.47;;
12048;SDS011;6085;49.452;8.502;2022-09-13T08:14:52;6.05;;;4.25;;
12048;SDS011;6085;49.452;8.502;2022-09-13T08:18:56;4.30;;;3.88;;
12048;SDS011;6085;49.452;8.502;2022-09-13T08:22:59;7.60;;;4.38;;
12048;SDS011;6085;49.452;8.502;2022-09-13T08:27:01;5.05;;;4.20;;
12048;SDS011;6085;49.452;8.502;2022-09-13T08:31:03;5.97;;;4.43;;
12048;SDS011;6085;49.452;8.502;2022-09-13T08:35:08;6.10;;;4.80;;
12048;SDS011;6085;49.452;8.502;2022-09-13T08:39:10;6.63;;;3.90;;
12048;SDS011;6085;49.452;8.502;2022-09-13T08:43:14;9.07;;;4.43;;
12048;SDS011;6085;49.452;8.502;2022-09-13T08:47:30;5.70;;;3.90;;
12048;SDS011;6085;49.452;8.502;2022-09-13T08:51:40;7.97;;;4.68;;
12048;SDS011;6085;49.452;8.502;2022-09-13T08:55:48;7.68;;;3.88;;
12048;SDS011;6085;49.452;8.502;2022-09-13T08:59:58;4.82;;;3.90;;
12048;SDS011;6085;49.452;8.502;2022-09-13T09:04:06;6.38;;;4.38;;
12048;SDS011;6085;49.452;8.502;2022-09-13T09:08:18;4.97;;;3.78;;
12048;SDS011;6085;49.452;8.502;2022-09-13T09:12:30;4.40;;;4.00;;
12048;SDS011;6085;49.452;8.502;2022-09-13T09:16:37;3.95;;;3.65;;
12048;SDS011;6085;49.452;8.502;2022-09-13T09:20:41;4.72;;;4.28;;
12048;SDS011;6085;49.452;8.502;2022-09-13T09:24:47;4.65;;;3.70;;
12048;SDS011;6085;49.452;8.502;2022-09-13T09:28:54;3.80;;;3.25;;
12048;SDS011;6085;49.452;8.502;2022-09-13T09:33:02;4.93;;;4.25;;
12048;SDS011;6085;49.452;8.502;2022-09-13T09:37:18;4.55;;;3.50;;
12048;SDS011;6085;49.452;8.502;2022-09-13T09:41:24;4.70;;;3.35;;
12048;SDS011;6085;49.452;8.502;2022-09-13T09:45:28;3.80;;;3.50;;
12048;SDS011;6085;49.452;8.502;2022-09-13T09:49:34;3.55;;;3.28;;
12048;SDS011;6085;49.452;8.502;2022-09-13T09:53:58;5.35;;;3.75;;
12048;SDS011;6085;49.452;8.502;2022-09-13T09:58:05;3.47;;;3.17;;
12048;SDS011;6085;49.452;8.502;2022-09-13T10:02:12;3.55;;;3.17;;
12048;SDS011;6085;49.452;8.502;2022-09-13T10:06:18;4.10;;;3.70;;
12048;SDS011;6085;49.452;8.502;2022-09-13T10:10:23;2.90;;;2.70;;
12048;SDS011;6085;49.452;8.502;2022-09-13T10:14:36;5.05;;;3.47;;
12048;SDS011;6085;49.452;8.502;2022-09-13T10:18:39;4.32;;;3.00;;
12048;SDS011;6085;49.452;8.502;2022-09-13T10:22:41;4.10;;;2.90;;
12048;SDS011;6085;49.452;8.502;2022-09-13T10:26:43;4.43;;;3.30;;
12048;SDS011;6085;49.452;8.502;2022-09-13T10:30:47;3.40;;;3.10;;
12048;SDS011;6085;49.452;8.502;2022-09-13T10:34:53;3.35;;;3.08;;
12048;SDS011;6085;49.452;8.502;2022-09-13T10:38:57;5.15;;;3.00;;
12048;SDS011;6085;49.452;8.502;2022-09-13T10:43:01;3.38;;;2.60;;
12048;SDS011;6085;49.452;8.502;2022-09-13T10:47:10;4.93;;;2.70;;
12048;SDS011;6085;49.452;8.502;2022-09-13T10:51:27;2.72;;;2.30;;
12048;SDS011;6085;49.452;8.502;2022-09-13T10:55:36;2.30;;;2.20;;
12048;SDS011;6085;49.452;8.502;2022-09-13T10:59:39;2.45;;;2.20;;
12048;SDS011;6085;49.452;8.502;2022-09-13T11:03:52;3.60;;;2.55;;
12048;SDS011;6085;49.452;8.502;2022-09-13T11:08:25;3.30;;;2.60;;
12048;SDS011;6085;49.452;8.502;2022-09-13T11:12:40;2.80;;;2.60;;
12048;SDS011;6085;49.452;8.502;2022-09-13T11:16:49;3.45;;;2.78;;
12048;SDS011;6085;49.452;8.502;2022-09-13T11:21:02;3.22;;;2.33;;
12048;SDS011;6085;49.452;8.502;2022-09-13T11:25:16;2.95;;;2.70;;
12048;SDS011;6085;49.452;8.502;2022-09-13T11:29:33;2.97;;;2.75;;
12048;SDS011;6085;49.452;8.502;2022-09-13T11:33:48;3.72;;;2.78;;
12048;SDS011;6085;49.452;8.502;2022-09-13T11:38:02;3.35;;;2.55;;
12048;SDS011;6085;49.452;8.502;2022-09-13T11:42:19;2.63;;;2.40;;
12048;SDS011;6085;49.452;8.502;2022-09-13T11:46:37;3.22;;;2.70;;
12048;SDS011;6085;49.452;8.502;2022-09-13T11:50:47;3.53;;;2.53;;
12048;SDS011;6085;49.452;8.502;2022-09-13T11:54:58;5.35;;;3.90;;
12048;SDS011;6085;49.452;8.502;2022-09-13T11:59:09;3.47;;;3.17;;
12048;SDS011;6085;49.452;8.502;2022-09-13T12:03:20;6.57;;;2.97;;
12048;SDS011;6085;49.452;8.502;2022-09-13T12:07:29;4.57;;;3.60;;
12048;SDS011;6085;49.452;8.502;2022-09-13T12:11:38;6.57;;;4.43;;
12048;SDS011;6085;49.452;8.502;2022-09-13T12:15:45;9.32;;;3.67;;
12048;SDS011;6085;49.452;8.502;2022-09-13T12:19:51;4.03;;;2.90;;
12048;SDS011;6085;49.452;8.502;2022-09-13T12:23:59;4.50;;;3.22;;
12048;SDS011;6085;49.452;8.502;2022-09-13T12:28:09;2.95;;;2.75;;
12048;SDS011;6085;49.452;8.502;2022-09-13T12:32:17;3.90;;;2.58;;
12048;SDS011;6085;49.452;8.502;2022-09-13T12:36:27;3.45;;;2.60;;
12048;SDS011;6085;49.452;8.502;2022-09-13T12:40:48;3.67;;;2.75;;
12048;SDS011;6085;49.452;8.502;2022-09-13T12:45:08;2.95;;;2.72;;
12048;SDS011;6085;49.452;8.502;2022-09-13T12:54:03;2.92;;;2.70;;
12048;SDS011;6085;49.452;8.502;2022-09-13T13:02:57;3.20;;;2.17;;
12048;SDS011;6085;49.452;8.502;2022-09-13T13:07:16;2.45;;;2.17;;
12048;SDS011;6085;49.452;8.502;2022-09-13T13:11:22;2.25;;;1.92;;
12048;SDS011;6085;49.452;8.502;2022-09-13T13:19:59;2.05;;;1.90;;
12048;SDS011;6085;49.452;8.502;2022-09-13T13:33:18;2.10;;;2.00;;
12048;SDS011;6085;49.452;8.502;2022-09-13T13:37:34;2.33;;;2.00;;
12048;SDS011;6085;49.452;8.502;2022-09-13T13:41:38;3.42;;;2.33;;
12048;SDS011;6085;49.452;8.502;2022-09-13T13:45:57;2.83;;;2.08;;
12048;SDS011;6085;49.452;8.502;2022-09-13T13:50:21;2.55;;;2.00;;
12048;SDS011;6085;49.452;8.502;2022-09-13T13:54:29;3.30;;;1.90;;
12048;SDS011;6085;49.452;8.502;2022-09-13T13:58:55;2.20;;;1.90;;
12048;SDS011;6085;49.452;8.502;2022-09-13T14:03:05;2.05;;;1.90;;
12048;SDS011;6085;49.452;8.502;2022-09-13T14:07:19;2.40;;;2.20;;
12048;SDS011;6085;49.452;8.502;2022-09-13T14:11:35;1.85;;;1.73;;
12048;SDS011;6085;49.452;8.502;2022-09-13T14:15:51;2.08;;;1.90;;
12048;SDS011;6085;49.452;8.502;2022-09-13T14:20:05;2.53;;;2.10;;
12048;SDS011;6085;49.452;8.502;2022-09-13T14:24:20;2.15;;;1.80;;
12048;SDS011;6085;49.452;8.502;2022-09-13T14:28:24;2.10;;;2.00;;
12048;SDS011;6085;49.452;8.502;2022-09-13T14:32:29;2.28;;;2.00;;
12048;SDS011;6085;49.452;8.502;2022-09-13T14:36:40;3.05;;;1.90;;
12048;SDS011;6085;49.452;8.502;2022-09-13T14:40:53;2.10;;;1.90;;
12048;SDS011;6085;49.452;8.502;2022-09-13T14:44:59;1.83;;;1.73;;
12048;SDS011;6085;49.452;8.502;2022-09-13T14:49:03;1.70;;;1.60;;
12048;SDS011;6085;49.452;8.502;2022-09-13T14:53:11;1.90;;;1.80;;
12048;SDS011;6085;49.452;8.502;2022-09-13T14:57:18;1.88;;;1.70;;
12048;SDS011;6085;49.452;8.502;2022-09-13T15:01:25;1.80;;;1.70;;
12048;SDS011;6085;49.452;8.502;2022-09-13T15:05:32;1.77;;;1.58;;
12048;SDS011;6085;49.452;8.502;2022-09-13T15:09:35;3.00;;;1.73;;
12048;SDS011;6085;49.452;8.502;2022-09-13T15:13:37;3.10;;;1.58;;
12048;SDS011;6085;49.452;8.502;2022-09-13T15:17:51;2.95;;;1.70;;
12048;SDS011;6085;49.452;8.502;2022-09-13T15:22:02;1.40;;;1.30;;
12048;SDS011;6085;49.452;8.502;2022-09-13T15:26:06;2.58;;;2.22;;
12048;SDS011;6085;49.452;8.502;2022-09-13T15:30:17;2.90;;;1.80;;
12048;SDS011;6085;49.452;8.502;2022-09-13T15:34:22;2.55;;;1.63;;
12048;SDS011;6085;49.452;8.502;2022-09-13T15:38:26;1.70;;;1.60;;
12048;SDS011;6085;49.452;8.502;2022-09-13T15:42:29;3.50;;;1.55;;
12048;SDS011;6085;49.452;8.502;2022-09-13T15:46:31;1.80;;;1.67;;
12048;SDS011;6085;49.452;8.502;2022-09-13T15:50:38;3.15;;;1.85;;
12048;SDS011;6085;49.452;8.502;2022-09-13T15:54:42;1.67;;;1.58;;
12048;SDS011;6085;49.452;8.502;2022-09-13T15:58:46;2.65;;;1.90;;
12048;SDS011;6085;49.452;8.502;2022-09-13T16:02:49;4.10;;;1.70;;
12048;SDS011;6085;49.452;8.502;2022-09-13T16:06:51;2.33;;;2.13;;
12048;SDS011;6085;49.452;8.502;2022-09-13T16:10:54;1.90;;;1.80;;
12048;SDS011;6085;49.452;8.502;2022-09-13T16:14:56;2.30;;;2.10;;
12048;SDS011;6085;49.452;8.502;2022-09-13T16:18:58;2.25;;;1.98;;
12048;SDS011;6085;49.452;8.502;2022-09-13T16:22:59;3.35;;;2.33;;
12048;SDS011;6085;49.452;8.502;2022-09-13T16:27:03;2.17;;;2.03;;
12048;SDS011;6085;49.452;8.502;2022-09-13T16:31:05;2.28;;;2.13;;
12048;SDS011;6085;49.452;8.502;2022-09-13T16:35:07;4.28;;;2.47;;
12048;SDS011;6085;49.452;8.502;2022-09-13T16:39:10;2.83;;;2.40;;
12048;SDS011;6085;49.452;8.502;2022-09-13T16:43:13;4.70;;;2.70;;
12048;SDS011;6085;49.452;8.502;2022-09-13T16:47:16;5.25;;;2.67;;
12048;SDS011;6085;49.452;8.502;2022-09-13T16:51:18;3.25;;;2.60;;
12048;SDS011;6085;49.452;8.502;2022-09-13T16:55:20;4.05;;;2.60;;
12048;SDS011;6085;49.452;8.502;2022-09-13T16:59:25;3.95;;;2.63;;
12048;SDS011;6085;49.452;8.502;2022-09-13T17:03:27;4.38;;;2.58;;
12048;SDS011;6085;49.452;8.502;2022-09-13T17:07:29;6.15;;;2.58;;
12048;SDS011;6085;49.452;8.502;2022-09-13T17:11:33;4.60;;;2.60;;
12048;SDS011;6085;49.452;8.502;2022-09-13T17:15:40;4.40;;;2.50;;
12048;SDS011;6085;49.452;8.502;2022-09-13T17:19:42;2.58;;;2.38;;
12048;SDS011;6085;49.452;8.502;2022-09-13T17:23:44;3.75;;;2.92;;
12048;SDS011;6085;49.452;8.502;2022-09-13T17:27:46;3.03;;;2.70;;
12048;SDS011;6085;49.452;8.502;2022-09-13T17:31:49;3.92;;;2.55;;
12048;SDS011;6085;49.452;8.502;2022-09-13T17:35:56;3.10;;;2.90;;
12048;SDS011;6085;49.452;8.502;2022-09-13T17:39:59;3.95;;;3.40;;
12048;SDS011;6085;49.452;8.502;2022-09-13T17:44:01;3.83;;;2.80;;
12048;SDS011;6085;49.452;8.502;2022-09-13T17:48:05;5.13;;;3.20;;
12048;SDS011;6085;49.452;8.502;2022-09-13T17:52:08;4.20;;;2.75;;
12048;SDS011;6085;49.452;8.502;2022-09-13T17:56:10;5.30;;;3.40;;
12048;SDS011;6085;49.452;8.502;2022-09-13T18:00:21;3.17;;;2.95;;
12048;SDS011;6085;49.452;8.502;2022-09-13T18:04:25;4.03;;;2.97;;
12048;SDS011;6085;49.452;8.502;2022-09-13T18:08:28;3.88;;;3.15;;
12048;SDS011;6085;49.452;8.502;2022-09-13T18:12:33;3.85;;;2.97;;
12048;SDS011;6085;49.452;8.502;2022-09-13T18:16:38;3.60;;;3.30;;
12048;SDS011;6085;49.452;8.502;2022-09-13T18:20:44;3.45;;;3.20;;
12048;SDS011;6085;49.452;8.502;2022-09-13T18:24:47;3.97;;;3.67;;
12048;SDS011;6085;49.452;8.502;2022-09-13T18:28:51;4.38;;;3.70;;
12048;SDS011;6085;49.452;8.502;2022-09-13T18:32:54;5.82;;;4.03;;
12048;SDS011;6085;49.452;8.502;2022-09-13T18:36:58;5.32;;;4.32;;
12048;SDS011;6085;49.452;8.502;2022-09-13T18:41:00;4.93;;;4.43;;
12048;SDS011;6085;49.452;8.502;2022-09-13T18:45:04;4.70;;;4.22;;
12048;SDS011;6085;49.452;8.502;2022-09-13T18:49:08;5.55;;;4.35;;
12048;SDS011;6085;49.452;8.502;2022-09-13T18:53:12;5.25;;;4.75;;
12048;SDS011;6085;49.452;8.502;2022-09-13T18:57:13;5.07;;;4.38;;
12048;SDS011;6085;49.452;8.502;2022-09-13T19:01:16;7.05;;;5.15;;
12048;SDS011;6085;49.452;8.502;2022-09-13T19:05:19;5.85;;;5.32;;
12048;SDS011;6085;49.452;8.502;2022-09-13T19:09:22;6.28;;;5.22;;
12048;SDS011;6085;49.452;8.502;2022-09-13T19:13:26;6.47;;;5.63;;
12048;SDS011;6085;49.452;8.502;2022-09-13T19:17:28;5.65;;;5.15;;
12048;SDS011;6085;49.452;8.502;2022-09-13T19:21:30;5.88;;;5.00;;
12048;SDS011;6085;49.452;8.502;2022-09-13T19:25:34;5.05;;;4.55;;
12048;SDS011;6085;49.452;8.502;2022-09-13T19:29:36;5.65;;;5.03;;
12048;SDS011;6085;49.452;8.502;2022-09-13T19:33:38;6.82;;;6.13;;
12048;SDS011;6085;49.452;8.502;2022-09-13T19:37:40;6.35;;;5.72;;
12048;SDS011;6085;49.452;8.502;2022-09-13T19:41:44;8.68;;;5.68;;
12048;SDS011;6085;49.452;8.502;2022-09-13T19:45:53;7.07;;;5.90;;
12048;SDS011;6085;49.452;8.502;2022-09-13T19:49:55;5.78;;;5.22;;
12048;SDS011;6085;49.452;8.502;2022-09-13T19:53:58;5.45;;;4.93;;
12048;SDS011;6085;49.452;8.502;2022-09-13T19:58:02;6.57;;;5.53;;
12048;SDS011;6085;49.452;8.502;2022-09-13T20:02:04;5.32;;;4.82;;
12048;SDS011;6085;49.452;8.502;2022-09-13T20:06:07;6.38;;;5.10;;
12048;SDS011;6085;49.452;8.502;2022-09-13T20:10:10;5.95;;;5.30;;
12048;SDS011;6085;49.452;8.502;2022-09-13T20:14:14;7.82;;;6.78;;
12048;SDS011;6085;49.452;8.502;2022-09-13T20:18:17;7.15;;;6.45;;
12048;SDS011;6085;49.452;8.502;2022-09-13T20:22:20;9.38;;;6.53;;
12048;SDS011;6085;49.452;8.502;2022-09-13T20:26:22;8.90;;;6.10;;
12048;SDS011;6085;49.452;8.502;2022-09-13T20:30:26;6.13;;;5.53;;
12048;SDS011;6085;49.452;8.502;2022-09-13T20:34:28;7.50;;;5.88;;
12048;SDS011;6085;49.452;8.502;2022-09-13T20:38:30;6.88;;;5.82;;
12048;SDS011;6085;49.452;8.502;2022-09-13T20:42:32;8.02;;;6.45;;
12048;SDS011;6085;49.452;8.502;2022-09-13T20:46:36;6.72;;;6.05;;
12048;SDS011;6085;49.452;8.502;2022-09-13T20:50:39;7.03;;;5.57;;
12048;SDS011;6085;49.452;8.502;2022-09-13T20:54:41;6.80;;;6.20;;
12048;SDS011;6085;49.452;8.502;2022-09-13T20:58:43;6.15;;;5.55;;
12048;SDS011;6085;49.452;8.502;2022-09-13T21:02:47;6.57;;;5.97;;
12048;SDS011;6085;49.452;8.502;2022-09-13T21:06:49;6.00;;;5.32;;
12048;SDS011;6085;49.452;8.502;2022-09-13T21:11:09;5.78;;;5.28;;
12048;SDS011;6085;49.452;8.502;2022-09-13T21:15:12;8.55;;;6.68;;
12048;SDS011;6085;49.452;8.502;2022-09-13T21:19:16;6.15;;;5.65;;
12048;SDS011;6085;49.452;8.502;2022-09-13T21:23:19;5.90;;;5.30;;
12048;SDS011;6085;49.452;8.502;2022-09-13T21:27:21;6.28;;;5.68;;
12048;SDS011;6085;49.452;8.502;2022-09-13T21:31:24;7.25;;;6.45;;
12048;SDS011;6085;49.452;8.502;2022-09-13T21:35:29;6.22;;;5.63;;
12048;SDS011;6085;49.452;8.502;2022-09-13T21:39:31;7.00;;;6.28;;
12048;SDS011;6085;49.452;8.502;2022-09-13T21:43:33;6.63;;;6.00;;
12048;SDS011;6085;49.452;8.502;2022-09-13T21:47:35;7.57;;;6.40;;
12048;SDS011;6085;49.452;8.502;2022-09-13T21:51:39;6.18;;;5.57;;
12048;SDS011;6085;49.452;8.502;2022-09-13T21:55:42;7.15;;;6.45;;
12048;SDS011;6085;49.452;8.502;2022-09-13T21:59:45;6.97;;;6.28;;
12048;SDS011;6085;49.452;8.502;2022-09-13T22:03:49;8.02;;;6.70;;
12048;SDS011;6085;49.452;8.502;2022-09-13T22:07:53;7.78;;;5.80;;
12048;SDS011;6085;49.452;8.502;2022-09-13T22:11:55;9.68;;;6.97;;
12048;SDS011;6085;49.452;8.502;2022-09-13T22:16:01;8.15;;;6.68;;
12048;SDS011;6085;49.452;8.502;2022-09-13T22:20:04;6.65;;;5.93;;
12048;SDS011;6085;49.452;8.502;2022-09-13T22:24:08;8.85;;;7.60;;
12048;SDS011;6085;49.452;8.502;2022-09-13T22:28:14;6.63;;;6.03;;
12048;SDS011;6085;49.452;8.502;2022-09-13T22:32:16;7.20;;;6.38;;
12048;SDS011;6085;49.452;8.502;2022-09-13T22:36:17;6.47;;;5.78;;
12048;SDS011;6085;49.452;8.502;2022-09-13T22:40:21;6.43;;;5.82;;
12048;SDS011;6085;49.452;8.502;2022-09-13T22:44:23;5.20;;;4.70;;
12048;SDS011;6085;49.452;8.502;2022-09-13T22:48:25;7.32;;;5.93;;
12048;SDS011;6085;49.452;8.502;2022-09-13T22:52:26;7.22;;;5.60;;
12048;SDS011;6085;49.452;8.502;2022-09-13T22:56:31;6.63;;;6.03;;
12048;SDS011;6085;49.452;8.502;2022-09-13T23:00:33;7.93;;;6.40;;
12048;SDS011;6085;49.452;8.502;2022-09-13T23:04:35;8.45;;;7.10;;
12048;SDS011;6085;49.452;8.502;2022-09-13T23:08:37;12.00;;;8.48;;
12048;SDS011;6085;49.452;8.502;2022-09-13T23:12:41;11.05;;;8.88;;
12048;SDS011;6085;49.452;8.502;2022-09-13T23:16:44;10.75;;;7.95;;
12048;SDS011;6085;49.452;8.502;2022-09-13T23:20:54;7.25;;;6.55;;
12048;SDS011;6085;49.452;8.502;2022-09-13T23:24:56;9.75;;;8.38;;
12048;SDS011;6085;49.452;8.502;2022-09-13T23:29:00;9.70;;;8.70;;
12048;SDS011;6085;49.452;8.502;2022-09-13T23:33:02;9.93;;;8.75;;
12048;SDS011;6085;49.452;8.502;2022-09-13T23:37:05;9.68;;;8.77;;
12048;SDS011;6085;49.452;8.502;2022-09-13T23:41:06;11.40;;;9.75;;
12048;SDS011;6085;49.452;8.502;2022-09-13T23:45:11;12.00;;;10.77;;
12048;SDS011;6085;49.452;8.502;2022-09-13T23:49:13;12.43;;;10.43;;
12048;SDS011;6085;49.452;8.502;2022-09-13T23:53:15;13.45;;;10.93;;
12048;SDS011;6085;49.452;8.502;2022-09-13T23:57:17;12.77;;;9.95;;
